sensor_id;sensor_type;location;lat;lon;timestamp;P1;durP1;ratioP1;P2;durP2;ratioP2
18405;SDS011;9329;48.720;9.588;2022-12-18T00:01:34;126.90;;;63.53;;
18405;SDS011;9329;48.720;9.588;2022-12-18T00:04:14;127.80;;;64.78;;
18405;SDS011;9329;48.720;9.588;2022-12-18T00:06:47;122.05;;;62.85;;
18405;SDS011;9329;48.720;9.588;2022-12-18T00:15:30;122.78;;;62.88;;
18405;SDS011;9329;48.720;9.588;2022-12-18T00:18:15;124.28;;;61.55;;
18405;SDS011;9329;48.720;9.588;2022-12-18T00:20:46;120.13;;;61.10;;
18405;SDS011;9329;48.720;9.588;2022-12-18T00:23:13;119.93;;;60.85;;
18405;SDS011;9329;48.720;9.588;2022-12-18T00:25:40;112.93;;;55.53;;
18405;SDS011;9329;48.720;9.588;2022-12-18T00:28:07;115.43;;;56.83;;
18405;SDS011;9329;48.720;9.588;2022-12-18T00:30:34;117.50;;;58.85;;
18405;SDS011;9329;48.720;9.588;2022-12-18T00:33:13;111.35;;;55.03;;
18405;SDS011;9329;48.720;9.588;2022-12-18T00:35:40;111.53;;;55.35;;
18405;SDS011;9329;48.720;9.588;2022-12-18T00:38:09;110.93;;;56.80;;
18405;SDS011;9329;48.720;9.588;2022-12-18T00:40:36;108.90;;;55.78;;
18405;SDS011;9329;48.720;9.588;2022-12-18T00:43:02;109.32;;;56.55;;
18405;SDS011;9329;48.720;9.588;2022-12-18T00:45:31;106.10;;;54.15;;
18405;SDS011;9329;48.720;9.588;2022-12-18T00:47:58;115.80;;;58.40;;
18405;SDS011;9329;48.720;9.588;2022-12-18T00:50:26;111.80;;;55.63;;
18405;SDS011;9329;48.720;9.588;2022-12-18T00:52:53;110.18;;;56.72;;
18405;SDS011;9329;48.720;9.588;2022-12-18T00:55:20;115.70;;;58.60;;
18405;SDS011;9329;48.720;9.588;2022-12-18T00:57:47;111.05;;;55.42;;
18405;SDS011;9329;48.720;9.588;2022-12-18T01:00:17;112.05;;;57.20;;
18405;SDS011;9329;48.720;9.588;2022-12-18T01:02:44;112.57;;;56.38;;
18405;SDS011;9329;48.720;9.588;2022-12-18T01:05:12;110.43;;;55.63;;
18405;SDS011;9329;48.720;9.588;2022-12-18T01:07:40;110.30;;;55.42;;
18405;SDS011;9329;48.720;9.588;2022-12-18T01:10:09;103.68;;;53.55;;
18405;SDS011;9329;48.720;9.588;2022-12-18T01:12:38;100.85;;;51.95;;
18405;SDS011;9329;48.720;9.588;2022-12-18T01:15:06;101.43;;;51.08;;
18405;SDS011;9329;48.720;9.588;2022-12-18T01:17:36;100.53;;;50.75;;
18405;SDS011;9329;48.720;9.588;2022-12-18T01:20:03;102.28;;;51.80;;
18405;SDS011;9329;48.720;9.588;2022-12-18T01:22:31;100.78;;;51.30;;
18405;SDS011;9329;48.720;9.588;2022-12-18T01:25:03;104.68;;;54.13;;
18405;SDS011;9329;48.720;9.588;2022-12-18T01:27:32;106.55;;;53.88;;
18405;SDS011;9329;48.720;9.588;2022-12-18T01:30:02;104.00;;;53.38;;
18405;SDS011;9329;48.720;9.588;2022-12-18T01:32:30;106.25;;;54.03;;
18405;SDS011;9329;48.720;9.588;2022-12-18T01:34:58;109.80;;;53.57;;
18405;SDS011;9329;48.720;9.588;2022-12-18T01:37:26;109.60;;;55.75;;
18405;SDS011;9329;48.720;9.588;2022-12-18T01:39:53;109.27;;;54.50;;
18405;SDS011;9329;48.720;9.588;2022-12-18T01:42:22;107.13;;;53.47;;
18405;SDS011;9329;48.720;9.588;2022-12-18T01:44:54;106.32;;;52.70;;
18405;SDS011;9329;48.720;9.588;2022-12-18T01:47:24;103.22;;;54.17;;
18405;SDS011;9329;48.720;9.588;2022-12-18T01:49:54;104.03;;;50.90;;
18405;SDS011;9329;48.720;9.588;2022-12-18T01:52:22;102.65;;;52.45;;
18405;SDS011;9329;48.720;9.588;2022-12-18T01:54:52;105.28;;;52.35;;
18405;SDS011;9329;48.720;9.588;2022-12-18T01:57:22;104.93;;;52.80;;
18405;SDS011;9329;48.720;9.588;2022-12-18T01:59:52;107.00;;;51.33;;
18405;SDS011;9329;48.720;9.588;2022-12-18T02:02:23;106.07;;;50.92;;
18405;SDS011;9329;48.720;9.588;2022-12-18T02:04:51;113.45;;;53.25;;
18405;SDS011;9329;48.720;9.588;2022-12-18T02:07:20;106.45;;;50.88;;
18405;SDS011;9329;48.720;9.588;2022-12-18T02:09:54;112.03;;;52.38;;
18405;SDS011;9329;48.720;9.588;2022-12-18T02:12:29;117.03;;;54.38;;
18405;SDS011;9329;48.720;9.588;2022-12-18T02:15:03;114.70;;;54.95;;
18405;SDS011;9329;48.720;9.588;2022-12-18T02:17:37;114.65;;;53.45;;
18405;SDS011;9329;48.720;9.588;2022-12-18T02:20:11;112.28;;;52.55;;
18405;SDS011;9329;48.720;9.588;2022-12-18T02:22:46;121.22;;;55.05;;
18405;SDS011;9329;48.720;9.588;2022-12-18T02:25:30;114.85;;;53.20;;
18405;SDS011;9329;48.720;9.588;2022-12-18T02:28:26;107.70;;;50.80;;
18405;SDS011;9329;48.720;9.588;2022-12-18T02:31:01;111.15;;;52.10;;
18405;SDS011;9329;48.720;9.588;2022-12-18T02:33:31;106.93;;;51.47;;
18405;SDS011;9329;48.720;9.588;2022-12-18T02:36:00;115.32;;;53.97;;
18405;SDS011;9329;48.720;9.588;2022-12-18T02:38:31;117.93;;;53.78;;
18405;SDS011;9329;48.720;9.588;2022-12-18T02:41:06;110.43;;;50.92;;
18405;SDS011;9329;48.720;9.588;2022-12-18T02:43:36;107.70;;;49.55;;
18405;SDS011;9329;48.720;9.588;2022-12-18T02:46:22;108.60;;;50.10;;
18405;SDS011;9329;48.720;9.588;2022-12-18T02:48:57;111.90;;;51.85;;
18405;SDS011;9329;48.720;9.588;2022-12-18T02:51:30;112.18;;;51.67;;
18405;SDS011;9329;48.720;9.588;2022-12-18T02:54:04;106.68;;;49.67;;
18405;SDS011;9329;48.720;9.588;2022-12-18T02:56:38;110.97;;;50.65;;
18405;SDS011;9329;48.720;9.588;2022-12-18T02:59:17;98.22;;;44.92;;
18405;SDS011;9329;48.720;9.588;2022-12-18T03:01:55;118.75;;;55.20;;
18405;SDS011;9329;48.720;9.588;2022-12-18T03:04:28;111.10;;;52.28;;
18405;SDS011;9329;48.720;9.588;2022-12-18T03:07:02;115.40;;;52.17;;
18405;SDS011;9329;48.720;9.588;2022-12-18T03:09:36;115.93;;;51.67;;
18405;SDS011;9329;48.720;9.588;2022-12-18T03:12:06;109.70;;;50.95;;
18405;SDS011;9329;48.720;9.588;2022-12-18T03:14:52;104.53;;;48.47;;
18405;SDS011;9329;48.720;9.588;2022-12-18T03:17:26;117.43;;;52.33;;
18405;SDS011;9329;48.720;9.588;2022-12-18T03:19:55;110.00;;;49.33;;
18405;SDS011;9329;48.720;9.588;2022-12-18T03:22:25;109.25;;;50.63;;
18405;SDS011;9329;48.720;9.588;2022-12-18T03:24:56;114.80;;;52.55;;
18405;SDS011;9329;48.720;9.588;2022-12-18T03:27:25;115.50;;;53.25;;
18405;SDS011;9329;48.720;9.588;2022-12-18T03:29:59;110.70;;;52.38;;
18405;SDS011;9329;48.720;9.588;2022-12-18T03:32:35;108.18;;;50.97;;
18405;SDS011;9329;48.720;9.588;2022-12-18T03:35:07;111.82;;;51.00;;
18405;SDS011;9329;48.720;9.588;2022-12-18T03:37:36;114.70;;;52.33;;
18405;SDS011;9329;48.720;9.588;2022-12-18T03:40:04;115.63;;;52.72;;
18405;SDS011;9329;48.720;9.588;2022-12-18T03:42:36;115.03;;;50.83;;
18405;SDS011;9329;48.720;9.588;2022-12-18T03:45:12;120.40;;;52.03;;
18405;SDS011;9329;48.720;9.588;2022-12-18T03:47:47;126.03;;;55.22;;
18405;SDS011;9329;48.720;9.588;2022-12-18T03:50:26;126.68;;;54.90;;
18405;SDS011;9329;48.720;9.588;2022-12-18T03:53:00;138.45;;;56.88;;
18405;SDS011;9329;48.720;9.588;2022-12-18T03:55:34;131.75;;;56.20;;
18405;SDS011;9329;48.720;9.588;2022-12-18T03:58:04;134.65;;;54.92;;
18405;SDS011;9329;48.720;9.588;2022-12-18T04:00:55;135.83;;;55.07;;
18405;SDS011;9329;48.720;9.588;2022-12-18T04:03:25;126.57;;;51.83;;
18405;SDS011;9329;48.720;9.588;2022-12-18T04:05:55;119.80;;;51.95;;
18405;SDS011;9329;48.720;9.588;2022-12-18T04:08:26;118.25;;;52.55;;
18405;SDS011;9329;48.720;9.588;2022-12-18T04:11:04;117.70;;;50.28;;
18405;SDS011;9329;48.720;9.588;2022-12-18T04:13:33;113.93;;;49.67;;
18405;SDS011;9329;48.720;9.588;2022-12-18T04:16:06;109.78;;;49.05;;
18405;SDS011;9329;48.720;9.588;2022-12-18T04:18:38;123.72;;;51.63;;
18405;SDS011;9329;48.720;9.588;2022-12-18T04:21:05;117.15;;;50.75;;
18405;SDS011;9329;48.720;9.588;2022-12-18T04:23:32;111.07;;;50.58;;
18405;SDS011;9329;48.720;9.588;2022-12-18T04:26:00;104.90;;;48.00;;
18405;SDS011;9329;48.720;9.588;2022-12-18T04:28:45;102.70;;;49.40;;
18405;SDS011;9329;48.720;9.588;2022-12-18T04:31:14;104.07;;;48.90;;
18405;SDS011;9329;48.720;9.588;2022-12-18T04:33:46;108.55;;;47.97;;
18405;SDS011;9329;48.720;9.588;2022-12-18T04:36:13;110.73;;;50.33;;
18405;SDS011;9329;48.720;9.588;2022-12-18T04:38:40;101.13;;;47.97;;
18405;SDS011;9329;48.720;9.588;2022-12-18T04:41:11;102.40;;;48.00;;
18405;SDS011;9329;48.720;9.588;2022-12-18T04:43:40;103.93;;;48.35;;
18405;SDS011;9329;48.720;9.588;2022-12-18T04:46:07;111.20;;;50.03;;
18405;SDS011;9329;48.720;9.588;2022-12-18T04:48:36;110.25;;;49.95;;
18405;SDS011;9329;48.720;9.588;2022-12-18T04:51:03;109.50;;;49.90;;
18405;SDS011;9329;48.720;9.588;2022-12-18T04:53:31;122.97;;;53.20;;
18405;SDS011;9329;48.720;9.588;2022-12-18T04:56:02;119.38;;;51.63;;
18405;SDS011;9329;48.720;9.588;2022-12-18T04:58:30;126.87;;;52.43;;
18405;SDS011;9329;48.720;9.588;2022-12-18T05:00:57;117.75;;;51.10;;
18405;SDS011;9329;48.720;9.588;2022-12-18T05:03:24;124.07;;;50.83;;
18405;SDS011;9329;48.720;9.588;2022-12-18T05:05:52;118.90;;;50.63;;
18405;SDS011;9329;48.720;9.588;2022-12-18T05:08:19;122.50;;;51.05;;
18405;SDS011;9329;48.720;9.588;2022-12-18T05:10:46;122.40;;;51.38;;
18405;SDS011;9329;48.720;9.588;2022-12-18T05:13:13;124.75;;;51.58;;
18405;SDS011;9329;48.720;9.588;2022-12-18T05:15:40;117.70;;;50.25;;
18405;SDS011;9329;48.720;9.588;2022-12-18T05:18:08;109.88;;;47.10;;
18405;SDS011;9329;48.720;9.588;2022-12-18T05:20:35;111.32;;;49.65;;
18405;SDS011;9329;48.720;9.588;2022-12-18T05:23:03;110.40;;;47.67;;
18405;SDS011;9329;48.720;9.588;2022-12-18T05:25:30;112.75;;;49.83;;
18405;SDS011;9329;48.720;9.588;2022-12-18T05:27:57;107.30;;;48.25;;
18405;SDS011;9329;48.720;9.588;2022-12-18T05:30:24;106.43;;;47.42;;
18405;SDS011;9329;48.720;9.588;2022-12-18T05:32:51;109.07;;;48.63;;
18405;SDS011;9329;48.720;9.588;2022-12-18T05:35:18;113.68;;;48.78;;
18405;SDS011;9329;48.720;9.588;2022-12-18T05:37:45;105.78;;;47.53;;
18405;SDS011;9329;48.720;9.588;2022-12-18T05:40:13;103.38;;;47.25;;
18405;SDS011;9329;48.720;9.588;2022-12-18T05:42:40;106.28;;;47.30;;
18405;SDS011;9329;48.720;9.588;2022-12-18T05:45:07;111.77;;;49.93;;
18405;SDS011;9329;48.720;9.588;2022-12-18T05:47:35;103.85;;;48.38;;
18405;SDS011;9329;48.720;9.588;2022-12-18T05:50:02;106.18;;;47.78;;
18405;SDS011;9329;48.720;9.588;2022-12-18T05:52:30;102.60;;;45.87;;
18405;SDS011;9329;48.720;9.588;2022-12-18T05:54:57;107.38;;;49.08;;
18405;SDS011;9329;48.720;9.588;2022-12-18T05:57:26;110.45;;;48.38;;
18405;SDS011;9329;48.720;9.588;2022-12-18T05:59:54;104.07;;;47.67;;
18405;SDS011;9329;48.720;9.588;2022-12-18T06:02:20;105.15;;;47.08;;
18405;SDS011;9329;48.720;9.588;2022-12-18T06:04:48;102.97;;;47.17;;
18405;SDS011;9329;48.720;9.588;2022-12-18T06:07:15;100.13;;;45.65;;
18405;SDS011;9329;48.720;9.588;2022-12-18T06:09:42;101.75;;;45.90;;
18405;SDS011;9329;48.720;9.588;2022-12-18T06:12:09;100.97;;;45.88;;
18405;SDS011;9329;48.720;9.588;2022-12-18T06:14:38;101.00;;;45.77;;
18405;SDS011;9329;48.720;9.588;2022-12-18T06:17:05;91.38;;;43.50;;
18405;SDS011;9329;48.720;9.588;2022-12-18T06:19:32;91.13;;;42.83;;
18405;SDS011;9329;48.720;9.588;2022-12-18T06:21:59;91.07;;;43.20;;
18405;SDS011;9329;48.720;9.588;2022-12-18T06:24:26;91.07;;;43.72;;
18405;SDS011;9329;48.720;9.588;2022-12-18T06:26:53;90.43;;;43.17;;
18405;SDS011;9329;48.720;9.588;2022-12-18T06:29:20;91.25;;;44.22;;
18405;SDS011;9329;48.720;9.588;2022-12-18T06:31:48;89.32;;;42.40;;
18405;SDS011;9329;48.720;9.588;2022-12-18T06:34:15;91.53;;;42.40;;
18405;SDS011;9329;48.720;9.588;2022-12-18T06:36:42;91.45;;;43.70;;
18405;SDS011;9329;48.720;9.588;2022-12-18T06:39:09;86.40;;;40.72;;
18405;SDS011;9329;48.720;9.588;2022-12-18T06:41:36;91.10;;;42.40;;
18405;SDS011;9329;48.720;9.588;2022-12-18T06:44:03;88.78;;;43.60;;
18405;SDS011;9329;48.720;9.588;2022-12-18T06:46:30;89.05;;;42.30;;
18405;SDS011;9329;48.720;9.588;2022-12-18T06:48:59;86.07;;;39.30;;
18405;SDS011;9329;48.720;9.588;2022-12-18T06:51:26;101.85;;;46.22;;
18405;SDS011;9329;48.720;9.588;2022-12-18T06:53:53;93.75;;;44.15;;
18405;SDS011;9329;48.720;9.588;2022-12-18T06:56:20;91.93;;;44.13;;
18405;SDS011;9329;48.720;9.588;2022-12-18T06:58:48;86.13;;;41.47;;
18405;SDS011;9329;48.720;9.588;2022-12-18T07:01:18;85.45;;;40.40;;
18405;SDS011;9329;48.720;9.588;2022-12-18T07:03:45;85.10;;;41.53;;
18405;SDS011;9329;48.720;9.588;2022-12-18T07:06:14;90.25;;;41.55;;
18405;SDS011;9329;48.720;9.588;2022-12-18T07:08:43;89.30;;;41.50;;
18405;SDS011;9329;48.720;9.588;2022-12-18T07:11:10;86.90;;;39.08;;
18405;SDS011;9329;48.720;9.588;2022-12-18T07:13:37;85.60;;;41.92;;
18405;SDS011;9329;48.720;9.588;2022-12-18T07:16:06;88.03;;;43.33;;
18405;SDS011;9329;48.720;9.588;2022-12-18T07:18:34;87.85;;;45.60;;
18405;SDS011;9329;48.720;9.588;2022-12-18T07:21:04;99.45;;;49.22;;
18405;SDS011;9329;48.720;9.588;2022-12-18T07:23:34;90.32;;;44.40;;
18405;SDS011;9329;48.720;9.588;2022-12-18T07:26:02;90.40;;;43.92;;
18405;SDS011;9329;48.720;9.588;2022-12-18T07:28:30;87.80;;;42.75;;
18405;SDS011;9329;48.720;9.588;2022-12-18T07:30:57;89.60;;;42.90;;
18405;SDS011;9329;48.720;9.588;2022-12-18T07:33:25;83.95;;;41.78;;
18405;SDS011;9329;48.720;9.588;2022-12-18T07:35:52;90.65;;;42.20;;
18405;SDS011;9329;48.720;9.588;2022-12-18T07:38:19;82.18;;;39.70;;
18405;SDS011;9329;48.720;9.588;2022-12-18T07:40:48;85.77;;;38.10;;
18405;SDS011;9329;48.720;9.588;2022-12-18T07:43:15;94.25;;;41.88;;
18405;SDS011;9329;48.720;9.588;2022-12-18T07:45:43;91.97;;;41.25;;
18405;SDS011;9329;48.720;9.588;2022-12-18T07:48:10;99.80;;;49.58;;
18405;SDS011;9329;48.720;9.588;2022-12-18T07:50:37;102.88;;;50.00;;
18405;SDS011;9329;48.720;9.588;2022-12-18T07:53:04;102.20;;;50.15;;
18405;SDS011;9329;48.720;9.588;2022-12-18T07:55:32;99.43;;;48.97;;
18405;SDS011;9329;48.720;9.588;2022-12-18T07:58:01;95.70;;;48.60;;
18405;SDS011;9329;48.720;9.588;2022-12-18T08:00:39;100.22;;;48.53;;
18405;SDS011;9329;48.720;9.588;2022-12-18T08:03:09;94.55;;;46.42;;
18405;SDS011;9329;48.720;9.588;2022-12-18T08:05:41;94.07;;;47.75;;
18405;SDS011;9329;48.720;9.588;2022-12-18T08:08:08;102.57;;;49.03;;
18405;SDS011;9329;48.720;9.588;2022-12-18T08:10:35;90.88;;;45.72;;
18405;SDS011;9329;48.720;9.588;2022-12-18T08:13:03;86.53;;;44.30;;
18405;SDS011;9329;48.720;9.588;2022-12-18T08:15:30;93.00;;;44.47;;
18405;SDS011;9329;48.720;9.588;2022-12-18T08:17:57;93.03;;;44.10;;
18405;SDS011;9329;48.720;9.588;2022-12-18T08:20:24;86.15;;;40.85;;
18405;SDS011;9329;48.720;9.588;2022-12-18T08:22:51;90.93;;;43.75;;
18405;SDS011;9329;48.720;9.588;2022-12-18T08:25:19;92.43;;;44.45;;
18405;SDS011;9329;48.720;9.588;2022-12-18T08:27:46;87.93;;;41.22;;
18405;SDS011;9329;48.720;9.588;2022-12-18T08:30:14;83.85;;;39.67;;
18405;SDS011;9329;48.720;9.588;2022-12-18T08:32:41;86.55;;;41.58;;
18405;SDS011;9329;48.720;9.588;2022-12-18T08:35:08;92.95;;;47.22;;
18405;SDS011;9329;48.720;9.588;2022-12-18T08:37:37;98.30;;;48.47;;
18405;SDS011;9329;48.720;9.588;2022-12-18T08:40:04;98.70;;;47.65;;
18405;SDS011;9329;48.720;9.588;2022-12-18T08:42:33;106.07;;;51.95;;
18405;SDS011;9329;48.720;9.588;2022-12-18T08:45:19;89.88;;;45.35;;
18405;SDS011;9329;48.720;9.588;2022-12-18T08:47:46;81.57;;;41.40;;
18405;SDS011;9329;48.720;9.588;2022-12-18T08:50:13;93.22;;;45.55;;
18405;SDS011;9329;48.720;9.588;2022-12-18T08:52:40;90.40;;;42.90;;
18405;SDS011;9329;48.720;9.588;2022-12-18T08:55:07;109.45;;;53.60;;
18405;SDS011;9329;48.720;9.588;2022-12-18T08:57:35;84.10;;;42.23;;
18405;SDS011;9329;48.720;9.588;2022-12-18T09:00:02;84.55;;;40.55;;
18405;SDS011;9329;48.720;9.588;2022-12-18T09:02:31;77.00;;;39.28;;
18405;SDS011;9329;48.720;9.588;2022-12-18T09:04:58;82.43;;;40.53;;
18405;SDS011;9329;48.720;9.588;2022-12-18T09:07:25;100.30;;;48.95;;
18405;SDS011;9329;48.720;9.588;2022-12-18T09:09:52;102.60;;;51.47;;
18405;SDS011;9329;48.720;9.588;2022-12-18T09:12:20;98.20;;;48.90;;
18405;SDS011;9329;48.720;9.588;2022-12-18T09:14:47;80.73;;;39.93;;
18405;SDS011;9329;48.720;9.588;2022-12-18T09:17:14;85.82;;;42.00;;
18405;SDS011;9329;48.720;9.588;2022-12-18T09:19:42;83.43;;;41.47;;
18405;SDS011;9329;48.720;9.588;2022-12-18T09:22:10;81.70;;;40.70;;
18405;SDS011;9329;48.720;9.588;2022-12-18T09:24:37;78.30;;;38.75;;
18405;SDS011;9329;48.720;9.588;2022-12-18T09:27:04;92.45;;;47.15;;
18405;SDS011;9329;48.720;9.588;2022-12-18T09:29:31;99.88;;;49.90;;
18405;SDS011;9329;48.720;9.588;2022-12-18T09:31:59;82.00;;;39.75;;
18405;SDS011;9329;48.720;9.588;2022-12-18T09:34:26;73.67;;;36.50;;
18405;SDS011;9329;48.720;9.588;2022-12-18T09:36:54;81.47;;;41.45;;
18405;SDS011;9329;48.720;9.588;2022-12-18T09:39:21;87.32;;;46.05;;
18405;SDS011;9329;48.720;9.588;2022-12-18T09:41:50;79.53;;;40.10;;
18405;SDS011;9329;48.720;9.588;2022-12-18T09:44:23;80.30;;;40.13;;
18405;SDS011;9329;48.720;9.588;2022-12-18T09:47:03;79.40;;;42.25;;
18405;SDS011;9329;48.720;9.588;2022-12-18T09:49:35;82.40;;;43.17;;
18405;SDS011;9329;48.720;9.588;2022-12-18T09:52:11;77.13;;;39.42;;
18405;SDS011;9329;48.720;9.588;2022-12-18T09:54:42;90.93;;;46.58;;
18405;SDS011;9329;48.720;9.588;2022-12-18T09:57:13;84.97;;;45.63;;
18405;SDS011;9329;48.720;9.588;2022-12-18T09:59:41;87.13;;;43.75;;
18405;SDS011;9329;48.720;9.588;2022-12-18T10:02:15;84.82;;;42.22;;
18405;SDS011;9329;48.720;9.588;2022-12-18T10:04:48;83.47;;;42.40;;
18405;SDS011;9329;48.720;9.588;2022-12-18T10:07:26;74.40;;;38.90;;
18405;SDS011;9329;48.720;9.588;2022-12-18T10:10:00;69.18;;;36.00;;
18405;SDS011;9329;48.720;9.588;2022-12-18T10:12:36;67.30;;;34.90;;
18405;SDS011;9329;48.720;9.588;2022-12-18T10:15:10;59.13;;;31.15;;
18405;SDS011;9329;48.720;9.588;2022-12-18T10:17:45;59.60;;;30.63;;
18405;SDS011;9329;48.720;9.588;2022-12-18T10:20:20;61.13;;;31.75;;
18405;SDS011;9329;48.720;9.588;2022-12-18T10:22:55;60.33;;;30.40;;
18405;SDS011;9329;48.720;9.588;2022-12-18T10:25:28;57.40;;;29.80;;
18405;SDS011;9329;48.720;9.588;2022-12-18T10:28:06;56.92;;;30.58;;
18405;SDS011;9329;48.720;9.588;2022-12-18T10:30:36;55.97;;;28.30;;
18405;SDS011;9329;48.720;9.588;2022-12-18T10:33:11;55.40;;;28.85;;
18405;SDS011;9329;48.720;9.588;2022-12-18T10:35:49;54.65;;;28.23;;
18405;SDS011;9329;48.720;9.588;2022-12-18T10:38:22;55.88;;;28.67;;
18405;SDS011;9329;48.720;9.588;2022-12-18T10:40:53;53.55;;;27.65;;
18405;SDS011;9329;48.720;9.588;2022-12-18T10:43:22;55.58;;;28.60;;
18405;SDS011;9329;48.720;9.588;2022-12-18T10:48:48;53.47;;;28.25;;
18405;SDS011;9329;48.720;9.588;2022-12-18T10:51:21;51.58;;;27.65;;
18405;SDS011;9329;48.720;9.588;2022-12-18T10:53:58;53.25;;;28.40;;
18405;SDS011;9329;48.720;9.588;2022-12-18T10:56:28;52.90;;;28.80;;
18405;SDS011;9329;48.720;9.588;2022-12-18T10:58:58;53.05;;;28.42;;
18405;SDS011;9329;48.720;9.588;2022-12-18T11:01:27;52.10;;;27.30;;
18405;SDS011;9329;48.720;9.588;2022-12-18T11:04:01;57.53;;;31.17;;
18405;SDS011;9329;48.720;9.588;2022-12-18T11:06:51;60.30;;;32.30;;
18405;SDS011;9329;48.720;9.588;2022-12-18T11:09:30;92.90;;;45.97;;
18405;SDS011;9329;48.720;9.588;2022-12-18T11:12:00;71.63;;;36.00;;
18405;SDS011;9329;48.720;9.588;2022-12-18T11:14:29;110.57;;;50.93;;
18405;SDS011;9329;48.720;9.588;2022-12-18T11:17:00;118.75;;;52.60;;
18405;SDS011;9329;48.720;9.588;2022-12-18T11:19:32;55.25;;;29.90;;
18405;SDS011;9329;48.720;9.588;2022-12-18T11:22:01;84.07;;;41.80;;
18405;SDS011;9329;48.720;9.588;2022-12-18T11:24:49;54.13;;;29.40;;
18405;SDS011;9329;48.720;9.588;2022-12-18T11:27:26;52.15;;;28.80;;
18405;SDS011;9329;48.720;9.588;2022-12-18T11:30:20;51.45;;;28.27;;
18405;SDS011;9329;48.720;9.588;2022-12-18T11:32:55;50.35;;;27.35;;
18405;SDS011;9329;48.720;9.588;2022-12-18T11:35:31;50.80;;;27.35;;
18405;SDS011;9329;48.720;9.588;2022-12-18T11:38:10;49.50;;;26.67;;
18405;SDS011;9329;48.720;9.588;2022-12-18T11:40:45;48.65;;;26.35;;
18405;SDS011;9329;48.720;9.588;2022-12-18T11:43:20;47.65;;;26.40;;
18405;SDS011;9329;48.720;9.588;2022-12-18T11:45:54;46.72;;;26.00;;
18405;SDS011;9329;48.720;9.588;2022-12-18T11:48:26;48.55;;;27.13;;
18405;SDS011;9329;48.720;9.588;2022-12-18T11:50:57;49.75;;;26.75;;
18405;SDS011;9329;48.720;9.588;2022-12-18T11:53:27;50.53;;;27.08;;
18405;SDS011;9329;48.720;9.588;2022-12-18T11:59:05;50.80;;;26.77;;
18405;SDS011;9329;48.720;9.588;2022-12-18T12:01:47;48.53;;;26.40;;
18405;SDS011;9329;48.720;9.588;2022-12-18T12:07:34;47.20;;;25.92;;
18405;SDS011;9329;48.720;9.588;2022-12-18T12:18:47;54.28;;;30.48;;
18405;SDS011;9329;48.720;9.588;2022-12-18T12:22:33;44.83;;;25.43;;
18405;SDS011;9329;48.720;9.588;2022-12-18T12:26:01;47.70;;;26.23;;
18405;SDS011;9329;48.720;9.588;2022-12-18T12:40:36;48.97;;;27.10;;
18405;SDS011;9329;48.720;9.588;2022-12-18T12:43:10;50.10;;;27.35;;
18405;SDS011;9329;48.720;9.588;2022-12-18T12:45:46;50.17;;;27.65;;
18405;SDS011;9329;48.720;9.588;2022-12-18T12:48:19;49.78;;;27.77;;
18405;SDS011;9329;48.720;9.588;2022-12-18T12:50:54;49.05;;;27.45;;
18405;SDS011;9329;48.720;9.588;2022-12-18T12:53:24;51.08;;;27.27;;
18405;SDS011;9329;48.720;9.588;2022-12-18T12:55:57;49.17;;;27.27;;
18405;SDS011;9329;48.720;9.588;2022-12-18T12:58:27;47.30;;;26.55;;
18405;SDS011;9329;48.720;9.588;2022-12-18T13:01:02;50.78;;;27.45;;
18405;SDS011;9329;48.720;9.588;2022-12-18T13:03:41;48.97;;;27.60;;
18405;SDS011;9329;48.720;9.588;2022-12-18T13:06:16;50.58;;;27.17;;
18405;SDS011;9329;48.720;9.588;2022-12-18T13:08:55;51.88;;;27.45;;
18405;SDS011;9329;48.720;9.588;2022-12-18T13:11:38;50.22;;;27.40;;
18405;SDS011;9329;48.720;9.588;2022-12-18T13:14:29;50.63;;;27.55;;
18405;SDS011;9329;48.720;9.588;2022-12-18T13:22:38;52.00;;;28.55;;
18405;SDS011;9329;48.720;9.588;2022-12-18T13:25:27;50.83;;;27.37;;
18405;SDS011;9329;48.720;9.588;2022-12-18T13:28:04;48.65;;;26.65;;
18405;SDS011;9329;48.720;9.588;2022-12-18T13:30:42;51.72;;;27.58;;
18405;SDS011;9329;48.720;9.588;2022-12-18T13:33:35;51.07;;;27.30;;
18405;SDS011;9329;48.720;9.588;2022-12-18T13:36:09;54.70;;;29.23;;
18405;SDS011;9329;48.720;9.588;2022-12-18T13:45:40;51.25;;;27.15;;
18405;SDS011;9329;48.720;9.588;2022-12-18T13:48:20;53.47;;;28.88;;
18405;SDS011;9329;48.720;9.588;2022-12-18T13:50:55;52.17;;;27.83;;
18405;SDS011;9329;48.720;9.588;2022-12-18T13:53:30;51.63;;;27.90;;
18405;SDS011;9329;48.720;9.588;2022-12-18T13:56:02;52.40;;;28.05;;
18405;SDS011;9329;48.720;9.588;2022-12-18T13:58:30;54.42;;;30.15;;
18405;SDS011;9329;48.720;9.588;2022-12-18T14:01:00;55.33;;;29.27;;
18405;SDS011;9329;48.720;9.588;2022-12-18T14:03:30;52.70;;;27.70;;
18405;SDS011;9329;48.720;9.588;2022-12-18T14:06:02;55.33;;;29.58;;
18405;SDS011;9329;48.720;9.588;2022-12-18T14:08:33;52.13;;;27.85;;
18405;SDS011;9329;48.720;9.588;2022-12-18T14:11:04;51.13;;;28.42;;
18405;SDS011;9329;48.720;9.588;2022-12-18T14:13:35;50.00;;;27.67;;
18405;SDS011;9329;48.720;9.588;2022-12-18T14:16:06;50.60;;;28.38;;
18405;SDS011;9329;48.720;9.588;2022-12-18T14:18:41;50.10;;;27.90;;
18405;SDS011;9329;48.720;9.588;2022-12-18T14:21:17;51.05;;;27.00;;
18405;SDS011;9329;48.720;9.588;2022-12-18T14:23:47;47.92;;;26.67;;
18405;SDS011;9329;48.720;9.588;2022-12-18T14:26:25;51.08;;;27.88;;
18405;SDS011;9329;48.720;9.588;2022-12-18T14:28:54;50.88;;;26.40;;
18405;SDS011;9329;48.720;9.588;2022-12-18T14:31:26;50.38;;;26.80;;
18405;SDS011;9329;48.720;9.588;2022-12-18T14:33:55;49.00;;;26.35;;
18405;SDS011;9329;48.720;9.588;2022-12-18T14:36:27;50.58;;;27.48;;
18405;SDS011;9329;48.720;9.588;2022-12-18T14:38:55;51.95;;;27.25;;
18405;SDS011;9329;48.720;9.588;2022-12-18T14:41:24;48.15;;;25.63;;
18405;SDS011;9329;48.720;9.588;2022-12-18T14:43:53;50.00;;;26.15;;
18405;SDS011;9329;48.720;9.588;2022-12-18T14:46:29;50.63;;;26.23;;
18405;SDS011;9329;48.720;9.588;2022-12-18T14:49:00;51.10;;;27.35;;
18405;SDS011;9329;48.720;9.588;2022-12-18T14:51:30;51.08;;;27.40;;
18405;SDS011;9329;48.720;9.588;2022-12-18T14:53:59;49.40;;;26.65;;
18405;SDS011;9329;48.720;9.588;2022-12-18T14:56:29;49.38;;;26.73;;
18405;SDS011;9329;48.720;9.588;2022-12-18T14:58:58;51.75;;;26.75;;
18405;SDS011;9329;48.720;9.588;2022-12-18T15:01:27;50.58;;;27.05;;
18405;SDS011;9329;48.720;9.588;2022-12-18T15:03:58;51.28;;;27.55;;
18405;SDS011;9329;48.720;9.588;2022-12-18T15:06:28;51.95;;;28.70;;
18405;SDS011;9329;48.720;9.588;2022-12-18T15:08:57;52.85;;;28.38;;
18405;SDS011;9329;48.720;9.588;2022-12-18T15:11:26;54.63;;;29.10;;
18405;SDS011;9329;48.720;9.588;2022-12-18T15:13:54;51.70;;;28.13;;
18405;SDS011;9329;48.720;9.588;2022-12-18T15:16:23;59.60;;;29.58;;
18405;SDS011;9329;48.720;9.588;2022-12-18T15:18:52;56.85;;;29.13;;
18405;SDS011;9329;48.720;9.588;2022-12-18T15:21:20;52.42;;;27.88;;
18405;SDS011;9329;48.720;9.588;2022-12-18T15:23:48;54.70;;;27.70;;
18405;SDS011;9329;48.720;9.588;2022-12-18T15:26:17;55.80;;;28.80;;
18405;SDS011;9329;48.720;9.588;2022-12-18T15:28:47;54.40;;;28.52;;
18405;SDS011;9329;48.720;9.588;2022-12-18T15:31:21;58.03;;;28.48;;
18405;SDS011;9329;48.720;9.588;2022-12-18T15:36:47;55.28;;;27.52;;
18405;SDS011;9329;48.720;9.588;2022-12-18T15:39:16;53.10;;;27.25;;
18405;SDS011;9329;48.720;9.588;2022-12-18T15:41:43;55.28;;;27.63;;
18405;SDS011;9329;48.720;9.588;2022-12-18T15:44:25;53.00;;;27.37;;